sensor_id;sensor_type;location;lat;lon;timestamp;temperature;humidity
9800;DHT22;4939;52.00085300;4.17406100;2023-03-05T00:02:08;4.80;99.90
9800;DHT22;4939;52.00085300;4.17406100;2023-03-05T00:04:34;4.90;99.90
9800;DHT22;4939;52.00085300;4.17406100;2023-03-05T00:06:59;4.90;99.90
9800;DHT22;4939;52.00085300;4.17406100;2023-03-05T00:09:25;5.00;99.90
9800;DHT22;4939;52.00085300;4.17406100;2023-03-05T00:11:51;5.10;99.90
9800;DHT22;4939;52.00085300;4.17406100;2023-03-05T00:14:17;5.10;99.90
9800;DHT22;4939;52.00085300;4.17406100;2023-03-05T00:16:42;5.20;99.90
9800;DHT22;4939;52.00085300;4.17406100;2023-03-05T00:19:09;4.30;99.90
9800;DHT22;4939;52.00085300;4.17406100;2023-03-05T00:21:37;5.20;99.90
9800;DHT22;4939;52.00085300;4.17406100;2023-03-05T00:24:07;5.20;99.90
9800;DHT22;4939;52.00085300;4.17406100;2023-03-05T00:26:35;5.10;99.90
9800;DHT22;4939;52.00085300;4.17406100;2023-03-05T00:29:02;5.10;99.90
9800;DHT22;4939;52.00085300;4.17406100;2023-03-05T00:31:30;5.00;99.90
9800;DHT22;4939;52.00085300;4.17406100;2023-03-05T00:33:58;5.00;99.90
9800;DHT22;4939;52.00085300;4.17406100;2023-03-05T00:36:25;4.90;99.90
9800;DHT22;4939;52.00085300;4.17406100;2023-03-05T00:38:51;4.90;99.90
9800;DHT22;4939;52.00085300;4.17406100;2023-03-05T00:41:17;4.90;99.90
9800;DHT22;4939;52.00085300;4.17406100;2023-03-05T00:43:43;4.90;99.90
9800;DHT22;4939;52.00085300;4.17406100;2023-03-05T00:46:08;4.90;99.90
9800;DHT22;4939;52.00085300;4.17406100;2023-03-05T00:48:34;4.90;99.90
9800;DHT22;4939;52.00085300;4.17406100;2023-03-05T00:51:00;4.90;99.90
9800;DHT22;4939;52.00085300;4.17406100;2023-03-05T00:53:26;5.00;99.90
9800;DHT22;4939;52.00085300;4.17406100;2023-03-05T00:55:51;5.10;99.90
9800;DHT22;4939;52.00085300;4.17406100;2023-03-05T00:58:17;5.20;99.90
9800;DHT22;4939;52.00085300;4.17406100;2023-03-05T01:00:43;5.20;99.90
9800;DHT22;4939;52.00085300;4.17406100;2023-03-05T01:03:08;5.30;99.90
9800;DHT22;4939;52.00085300;4.17406100;2023-03-05T01:05:36;5.30;99.90
9800;DHT22;4939;52.00085300;4.17406100;2023-03-05T01:08:02;5.40;99.90
9800;DHT22;4939;52.00085300;4.17406100;2023-03-05T01:10:28;5.90;99.90
9800;DHT22;4939;52.00085300;4.17406100;2023-03-05T01:12:55;5.40;99.90
9800;DHT22;4939;52.00085300;4.17406100;2023-03-05T01:15:21;6.60;99.90
9800;DHT22;4939;52.00085300;4.17406100;2023-03-05T01:17:47;5.50;99.90
9800;DHT22;4939;52.00085300;4.17406100;2023-03-05T01:20:16;5.50;99.90
9800;DHT22;4939;52.00085300;4.17406100;2023-03-05T01:22:42;5.50;99.90
9800;DHT22;4939;52.00085300;4.17406100;2023-03-05T01:25:08;5.60;99.90
9800;DHT22;4939;52.00085300;4.17406100;2023-03-05T01:27:34;5.60;99.90
9800;DHT22;4939;52.00085300;4.17406100;2023-03-05T01:30:00;5.70;99.90
9800;DHT22;4939;52.00085300;4.17406100;2023-03-05T01:32:26;5.60;99.90
9800;DHT22;4939;52.00085300;4.17406100;2023-03-05T01:34:51;5.60;99.90
9800;DHT22;4939;52.00085300;4.17406100;2023-03-05T01:37:17;5.70;99.90
9800;DHT22;4939;52.00085300;4.17406100;2023-03-05T01:39:43;5.70;99.90
9800;DHT22;4939;52.00085300;4.17406100;2023-03-05T01:42:08;5.70;99.90
9800;DHT22;4939;52.00085300;4.17406100;2023-03-05T01:44:34;5.70;99.90
9800;DHT22;4939;52.00085300;4.17406100;2023-03-05T01:47:00;5.70;99.90
9800;DHT22;4939;52.00085300;4.17406100;2023-03-05T01:49:28;5.70;99.90
9800;DHT22;4939;52.00085300;4.17406100;2023-03-05T01:52:05;5.80;99.90
9800;DHT22;4939;52.00085300;4.17406100;2023-03-05T01:54:36;5.90;99.90
9800;DHT22;4939;52.00085300;4.17406100;2023-03-05T01:57:07;5.90;99.90
9800;DHT22;4939;52.00085300;4.17406100;2023-03-05T01:59:35;5.90;99.90
9800;DHT22;4939;52.00085300;4.17406100;2023-03-05T02:02:02;5.90;99.90
9800;DHT22;4939;52.00085300;4.17406100;2023-03-05T02:04:42;5.90;99.90
9800;DHT22;4939;52.00085300;4.17406100;2023-03-05T02:07:10;5.90;99.90
9800;DHT22;4939;52.00085300;4.17406100;2023-03-05T02:09:38;5.90;99.90
9800;DHT22;4939;52.00085300;4.17406100;2023-03-05T02:12:04;5.80;99.90
9800;DHT22;4939;52.00085300;4.17406100;2023-03-05T02:14:31;5.60;99.90
9800;DHT22;4939;52.00085300;4.17406100;2023-03-05T02:16:57;5.50;99.90
9800;DHT22;4939;52.00085300;4.17406100;2023-03-05T02:19:23;5.50;99.90
9800;DHT22;4939;52.00085300;4.17406100;2023-03-05T02:21:49;5.40;99.90
9800;DHT22;4939;52.00085300;4.17406100;2023-03-05T02:24:34;5.30;99.90
9800;DHT22;4939;52.00085300;4.17406100;2023-03-05T02:27:02;5.30;99.90
9800;DHT22;4939;52.00085300;4.17406100;2023-03-05T02:29:29;6.30;99.90
9800;DHT22;4939;52.00085300;4.17406100;2023-03-05T02:31:56;5.20;99.90
9800;DHT22;4939;52.00085300;4.17406100;2023-03-05T02:34:22;5.10;99.90
9800;DHT22;4939;52.00085300;4.17406100;2023-03-05T02:36:48;5.10;99.90
9800;DHT22;4939;52.00085300;4.17406100;2023-03-05T02:39:15;5.00;99.90
9800;DHT22;4939;52.00085300;4.17406100;2023-03-05T02:41:41;5.00;99.90
9800;DHT22;4939;52.00085300;4.17406100;2023-03-05T02:44:08;4.90;99.90
9800;DHT22;4939;52.00085300;4.17406100;2023-03-05T02:46:33;4.90;99.90
9800;DHT22;4939;52.00085300;4.17406100;2023-03-05T02:48:59;4.90;99.90
9800;DHT22;4939;52.00085300;4.17406100;2023-03-05T02:51:25;4.40;99.90
9800;DHT22;4939;52.00085300;4.17406100;2023-03-05T02:53:50;4.90;99.90
9800;DHT22;4939;52.00085300;4.17406100;2023-03-05T02:56:16;4.90;99.90
9800;DHT22;4939;52.00085300;4.17406100;2023-03-05T02:58:42;5.00;99.90
9800;DHT22;4939;52.00085300;4.17406100;2023-03-05T03:01:08;5.00;99.90
9800;DHT22;4939;52.00085300;4.17406100;2023-03-05T03:03:35;5.00;99.90
9800;DHT22;4939;52.00085300;4.17406100;2023-03-05T03:06:01;5.00;99.90
9800;DHT22;4939;52.00085300;4.17406100;2023-03-05T03:08:27;5.00;99.90
9800;DHT22;4939;52.00085300;4.17406100;2023-03-05T03:10:53;5.00;99.90
9800;DHT22;4939;52.00085300;4.17406100;2023-03-05T03:13:24;5.00;99.90
9800;DHT22;4939;52.00085300;4.17406100;2023-03-05T03:15:49;5.00;99.90
9800;DHT22;4939;52.00085300;4.17406100;2023-03-05T03:18:15;5.00;99.90
9800;DHT22;4939;52.00085300;4.17406100;2023-03-05T03:20:41;5.00;99.90
9800;DHT22;4939;52.00085300;4.17406100;2023-03-05T03:23:07;5.10;99.90
9800;DHT22;4939;52.00085300;4.17406100;2023-03-05T03:25:33;5.10;99.90
9800;DHT22;4939;52.00085300;4.17406100;2023-03-05T03:27:59;5.20;99.90
9800;DHT22;4939;52.00085300;4.17406100;2023-03-05T03:30:25;5.10;99.90
9800;DHT22;4939;52.00085300;4.17406100;2023-03-05T03:32:51;5.10;99.90
9800;DHT22;4939;52.00085300;4.17406100;2023-03-05T03:35:17;5.10;99.90
9800;DHT22;4939;52.00085300;4.17406100;2023-03-05T03:37:43;5.20;99.90
9800;DHT22;4939;52.00085300;4.17406100;2023-03-05T03:40:09;5.20;99.90
9800;DHT22;4939;52.00085300;4.17406100;2023-03-05T03:42:35;5.10;99.90
9800;DHT22;4939;52.00085300;4.17406100;2023-03-05T03:45:01;5.00;99.90
9800;DHT22;4939;52.00085300;4.17406100;2023-03-05T03:47:30;6.50;99.90
9800;DHT22;4939;52.00085300;4.17406100;2023-03-05T03:49:56;4.80;99.90
9800;DHT22;4939;52.00085300;4.17406100;2023-03-05T03:52:23;4.70;99.90
9800;DHT22;4939;52.00085300;4.17406100;2023-03-05T03:54:49;4.80;99.90
9800;DHT22;4939;52.00085300;4.17406100;2023-03-05T03:57:16;4.70;99.90
9800;DHT22;4939;52.00085300;4.17406100;2023-03-05T03:59:42;4.60;99.90
9800;DHT22;4939;52.00085300;4.17406100;2023-03-05T04:02:10;4.60;99.90
9800;DHT22;4939;52.00085300;4.17406100;2023-03-05T04:04:36;4.60;99.90
9800;DHT22;4939;52.00085300;4.17406100;2023-03-05T04:07:02;4.60;99.90
9800;DHT22;4939;52.00085300;4.17406100;2023-03-05T04:09:28;4.50;99.90
9800;DHT22;4939;52.00085300;4.17406100;2023-03-05T04:11:53;4.60;99.90
9800;DHT22;4939;52.00085300;4.17406100;2023-03-05T04:14:20;4.70;99.90
9800;DHT22;4939;52.00085300;4.17406100;2023-03-05T04:16:45;4.80;99.90
9800;DHT22;4939;52.00085300;4.17406100;2023-03-05T04:19:11;4.80;99.90
9800;DHT22;4939;52.00085300;4.17406100;2023-03-05T04:21:37;4.80;99.90
9800;DHT22;4939;52.00085300;4.17406100;2023-03-05T04:24:03;4.70;99.90
9800;DHT22;4939;52.00085300;4.17406100;2023-03-05T04:26:28;4.70;99.90
9800;DHT22;4939;52.00085300;4.17406100;2023-03-05T04:28:54;4.60;99.90
9800;DHT22;4939;52.00085300;4.17406100;2023-03-05T04:31:20;4.60;99.90
9800;DHT22;4939;52.00085300;4.17406100;2023-03-05T04:33:46;4.50;99.90
9800;DHT22;4939;52.00085300;4.17406100;2023-03-05T04:36:11;4.50;99.90
9800;DHT22;4939;52.00085300;4.17406100;2023-03-05T04:38:37;4.40;99.90
9800;DHT22;4939;52.00085300;4.17406100;2023-03-05T04:41:03;4.30;99.90
9800;DHT22;4939;52.00085300;4.17406100;2023-03-05T04:43:28;4.30;99.90
9800;DHT22;4939;52.00085300;4.17406100;2023-03-05T04:45:54;4.30;99.90
9800;DHT22;4939;52.00085300;4.17406100;2023-03-05T04:48:20;4.30;99.90
9800;DHT22;4939;52.00085300;4.17406100;2023-03-05T04:50:46;4.30;99.90
9800;DHT22;4939;52.00085300;4.17406100;2023-03-05T04:53:11;4.30;99.90
9800;DHT22;4939;52.00085300;4.17406100;2023-03-05T04:55:37;4.40;99.90
9800;DHT22;4939;52.00085300;4.17406100;2023-03-05T04:58:03;4.40;99.90
9800;DHT22;4939;52.00085300;4.17406100;2023-03-05T05:00:28;4.30;99.90
9800;DHT22;4939;52.00085300;4.17406100;2023-03-05T05:02:54;4.30;99.90
9800;DHT22;4939;52.00085300;4.17406100;2023-03-05T05:05:22;4.30;99.90
9800;DHT22;4939;52.00085300;4.17406100;2023-03-05T05:07:48;4.30;99.90
9800;DHT22;4939;52.00085300;4.17406100;2023-03-05T05:10:15;4.50;99.90
9800;DHT22;4939;52.00085300;4.17406100;2023-03-05T05:12:41;4.60;99.90
9800;DHT22;4939;52.00085300;4.17406100;2023-03-05T05:15:07;4.70;99.90
9800;DHT22;4939;52.00085300;4.17406100;2023-03-05T05:17:34;4.70;99.90
9800;DHT22;4939;52.00085300;4.17406100;2023-03-05T05:20:00;4.80;99.90
9800;DHT22;4939;52.00085300;4.17406100;2023-03-05T05:22:27;4.80;99.90
9800;DHT22;4939;52.00085300;4.17406100;2023-03-05T05:24:54;4.90;99.90
9800;DHT22;4939;52.00085300;4.17406100;2023-03-05T05:27:20;5.00;99.90
9800;DHT22;4939;52.00085300;4.17406100;2023-03-05T05:29:46;5.00;99.90
9800;DHT22;4939;52.00085300;4.17406100;2023-03-05T05:32:16;5.10;99.90
9800;DHT22;4939;52.00085300;4.17406100;2023-03-05T05:34:42;5.10;99.90
9800;DHT22;4939;52.00085300;4.17406100;2023-03-05T05:37:07;6.80;99.90
9800;DHT22;4939;52.00085300;4.17406100;2023-03-05T05:39:34;5.10;99.90
9800;DHT22;4939;52.00085300;4.17406100;2023-03-05T05:42:00;5.10;99.90
9800;DHT22;4939;52.00085300;4.17406100;2023-03-05T05:44:26;5.20;99.90
9800;DHT22;4939;52.00085300;4.17406100;2023-03-05T05:46:52;5.20;99.90
9800;DHT22;4939;52.00085300;4.17406100;2023-03-05T05:49:17;5.10;99.90
9800;DHT22;4939;52.00085300;4.17406100;2023-03-05T05:51:43;5.20;99.90
9800;DHT22;4939;52.00085300;4.17406100;2023-03-05T05:54:12;5.10;99.90
9800;DHT22;4939;52.00085300;4.17406100;2023-03-05T05:56:38;5.00;99.90
9800;DHT22;4939;52.00085300;4.17406100;2023-03-05T05:59:03;5.00;99.90
9800;DHT22;4939;52.00085300;4.17406100;2023-03-05T06:01:31;4.80;99.90
9800;DHT22;4939;52.00085300;4.17406100;2023-03-05T06:03:58;4.80;99.90
9800;DHT22;4939;52.00085300;4.17406100;2023-03-05T06:06:24;4.80;99.90
9800;DHT22;4939;52.00085300;4.17406100;2023-03-05T06:08:51;4.70;99.90
9800;DHT22;4939;52.00085300;4.17406100;2023-03-05T06:11:18;4.70;99.90
9800;DHT22;4939;52.00085300;4.17406100;2023-03-05T06:13:44;4.60;99.90
9800;DHT22;4939;52.00085300;4.17406100;2023-03-05T06:16:13;4.60;99.90
9800;DHT22;4939;52.00085300;4.17406100;2023-03-05T06:18:39;4.60;99.90
9800;DHT22;4939;52.00085300;4.17406100;2023-03-05T06:21:07;4.60;99.90
9800;DHT22;4939;52.00085300;4.17406100;2023-03-05T06:23:34;4.60;99.90
9800;DHT22;4939;52.00085300;4.17406100;2023-03-05T06:26:01;4.60;99.90
9800;DHT22;4939;52.00085300;4.17406100;2023-03-05T06:28:28;4.60;99.90
9800;DHT22;4939;52.00085300;4.17406100;2023-03-05T06:31:05;4.60;99.90
9800;DHT22;4939;52.00085300;4.17406100;2023-03-05T06:33:32;4.70;99.90
9800;DHT22;4939;52.00085300;4.17406100;2023-03-05T06:35:58;4.70;99.90
9800;DHT22;4939;52.00085300;4.17406100;2023-03-05T06:38:24;4.80;99.90
9800;DHT22;4939;52.00085300;4.17406100;2023-03-05T06:40:50;4.90;99.90
9800;DHT22;4939;52.00085300;4.17406100;2023-03-05T06:43:16;5.00;99.90
9800;DHT22;4939;52.00085300;4.17406100;2023-03-05T06:45:42;5.00;99.90
9800;DHT22;4939;52.00085300;4.17406100;2023-03-05T06:48:08;5.00;99.90
9800;DHT22;4939;52.00085300;4.17406100;2023-03-05T06:50:34;6.50;99.90
9800;DHT22;4939;52.00085300;4.17406100;2023-03-05T06:53:01;5.00;99.90
9800;DHT22;4939;52.00085300;4.17406100;2023-03-05T06:55:27;5.00;99.90
9800;DHT22;4939;52.00085300;4.17406100;2023-03-05T06:57:53;5.00;99.90
9800;DHT22;4939;52.00085300;4.17406100;2023-03-05T07:00:19;5.00;99.90
9800;DHT22;4939;52.00085300;4.17406100;2023-03-05T07:02:44;5.00;99.90
9800;DHT22;4939;52.00085300;4.17406100;2023-03-05T07:05:10;5.10;99.90
9800;DHT22;4939;52.00085300;4.17406100;2023-03-05T07:07:36;5.20;99.90
9800;DHT22;4939;52.00085300;4.17406100;2023-03-05T07:10:02;5.20;99.90
9800;DHT22;4939;52.00085300;4.17406100;2023-03-05T07:12:28;5.20;99.90
9800;DHT22;4939;52.00085300;4.17406100;2023-03-05T07:14:53;5.20;99.90
9800;DHT22;4939;52.00085300;4.17406100;2023-03-05T07:17:19;5.20;99.90
9800;DHT22;4939;52.00085300;4.17406100;2023-03-05T07:19:45;5.30;99.90
9800;DHT22;4939;52.00085300;4.17406100;2023-03-05T07:22:10;5.40;99.90
9800;DHT22;4939;52.00085300;4.17406100;2023-03-05T07:24:36;5.50;99.90
9800;DHT22;4939;52.00085300;4.17406100;2023-03-05T07:27:02;5.50;99.90
9800;DHT22;4939;52.00085300;4.17406100;2023-03-05T07:29:28;5.50;99.90
9800;DHT22;4939;52.00085300;4.17406100;2023-03-05T07:31:54;5.50;99.90
9800;DHT22;4939;52.00085300;4.17406100;2023-03-05T07:34:20;5.40;99.90
9800;DHT22;4939;52.00085300;4.17406100;2023-03-05T07:36:50;5.40;99.90
9800;DHT22;4939;52.00085300;4.17406100;2023-03-05T07:39:17;5.40;99.90
9800;DHT22;4939;52.00085300;4.17406100;2023-03-05T07:41:44;5.40;99.90
9800;DHT22;4939;52.00085300;4.17406100;2023-03-05T07:44:11;5.30;99.90
9800;DHT22;4939;52.00085300;4.17406100;2023-03-05T07:46:37;5.30;99.90
9800;DHT22;4939;52.00085300;4.17406100;2023-03-05T07:49:02;5.30;99.90
9800;DHT22;4939;52.00085300;4.17406100;2023-03-05T07:51:28;5.40;99.90
9800;DHT22;4939;52.00085300;4.17406100;2023-03-05T07:53:56;5.30;99.90
9800;DHT22;4939;52.00085300;4.17406100;2023-03-05T07:56:25;5.20;99.90
9800;DHT22;4939;52.00085300;4.17406100;2023-03-05T07:58:51;5.10;99.90
9800;DHT22;4939;52.00085300;4.17406100;2023-03-05T08:01:17;5.00;99.90
9800;DHT22;4939;52.00085300;4.17406100;2023-03-05T08:03:43;5.10;99.90
9800;DHT22;4939;52.00085300;4.17406100;2023-03-05T08:06:10;5.20;99.90
9800;DHT22;4939;52.00085300;4.17406100;2023-03-05T08:08:37;5.20;99.90
9800;DHT22;4939;52.00085300;4.17406100;2023-03-05T08:11:08;5.30;99.90
9800;DHT22;4939;52.00085300;4.17406100;2023-03-05T08:13:34;5.50;99.90
9800;DHT22;4939;52.00085300;4.17406100;2023-03-05T08:16:08;5.60;99.90
9800;DHT22;4939;52.00085300;4.17406100;2023-03-05T08:18:35;5.70;99.90
9800;DHT22;4939;52.00085300;4.17406100;2023-03-05T08:21:01;5.80;99.90
9800;DHT22;4939;52.00085300;4.17406100;2023-03-05T08:23:27;6.00;99.90
9800;DHT22;4939;52.00085300;4.17406100;2023-03-05T08:25:53;5.90;99.90
9800;DHT22;4939;52.00085300;4.17406100;2023-03-05T08:28:19;5.90;99.90
9800;DHT22;4939;52.00085300;4.17406100;2023-03-05T08:30:45;6.00;99.90
9800;DHT22;4939;52.00085300;4.17406100;2023-03-05T08:33:11;6.00;99.90
9800;DHT22;4939;52.00085300;4.17406100;2023-03-05T08:35:37;6.00;99.90
9800;DHT22;4939;52.00085300;4.17406100;2023-03-05T08:38:03;6.00;99.90
9800;DHT22;4939;52.00085300;4.17406100;2023-03-05T08:40:29;6.10;99.90
9800;DHT22;4939;52.00085300;4.17406100;2023-03-05T08:42:56;6.10;99.90
9800;DHT22;4939;52.00085300;4.17406100;2023-03-05T08:45:22;6.20;99.90
9800;DHT22;4939;52.00085300;4.17406100;2023-03-05T08:47:49;6.20;99.90
9800;DHT22;4939;52.00085300;4.17406100;2023-03-05T08:50:14;6.30;99.90
9800;DHT22;4939;52.00085300;4.17406100;2023-03-05T08:52:42;6.30;99.90
9800;DHT22;4939;52.00085300;4.17406100;2023-03-05T08:55:08;6.30;99.90
9800;DHT22;4939;52.00085300;4.17406100;2023-03-05T08:57:36;6.40;99.90
9800;DHT22;4939;52.00085300;4.17406100;2023-03-05T09:00:02;6.40;99.90
9800;DHT22;4939;52.00085300;4.17406100;2023-03-05T09:02:28;6.40;99.90
9800;DHT22;4939;52.00085300;4.17406100;2023-03-05T09:04:54;6.30;99.90
9800;DHT22;4939;52.00085300;4.17406100;2023-03-05T09:07:20;6.30;99.90
9800;DHT22;4939;52.00085300;4.17406100;2023-03-05T09:09:45;6.20;99.90
9800;DHT22;4939;52.00085300;4.17406100;2023-03-05T09:12:11;6.20;99.90
9800;DHT22;4939;52.00085300;4.17406100;2023-03-05T09:14:39;6.10;99.90
9800;DHT22;4939;52.00085300;4.17406100;2023-03-05T09:17:04;6.10;99.90
9800;DHT22;4939;52.00085300;4.17406100;2023-03-05T09:19:30;6.20;99.90
9800;DHT22;4939;52.00085300;4.17406100;2023-03-05T09:21:56;6.20;99.90
9800;DHT22;4939;52.00085300;4.17406100;2023-03-05T09:24:22;6.30;99.90
9800;DHT22;4939;52.00085300;4.17406100;2023-03-05T09:26:47;6.40;99.90
9800;DHT22;4939;52.00085300;4.17406100;2023-03-05T09:29:13;6.50;99.90
9800;DHT22;4939;52.00085300;4.17406100;2023-03-05T09:31:39;6.60;99.90
9800;DHT22;4939;52.00085300;4.17406100;2023-03-05T09:34:04;6.70;99.90
9800;DHT22;4939;52.00085300;4.17406100;2023-03-05T09:36:32;6.90;99.90
9800;DHT22;4939;52.00085300;4.17406100;2023-03-05T09:38:57;7.00;99.90
9800;DHT22;4939;52.00085300;4.17406100;2023-03-05T09:47:07;7.30;99.90
9800;DHT22;4939;52.00085300;4.17406100;2023-03-05T09:50:04;7.30;99.90
9800;DHT22;4939;52.00085300;4.17406100;2023-03-05T09:52:45;7.40;99.90
9800;DHT22;4939;52.00085300;4.17406100;2023-03-05T09:55:28;7.60;99.90
9800;DHT22;4939;52.00085300;4.17406100;2023-03-05T09:58:01;7.60;99.90
9800;DHT22;4939;52.00085300;4.17406100;2023-03-05T10:00:38;7.50;99.90
9800;DHT22;4939;52.00085300;4.17406100;2023-03-05T10:03:24;7.40;99.90
9800;DHT22;4939;52.00085300;4.17406100;2023-03-05T10:08:30;7.40;99.90
9800;DHT22;4939;52.00085300;4.17406100;2023-03-05T10:10:58;7.50;99.90
9800;DHT22;4939;52.00085300;4.17406100;2023-03-05T10:13:32;7.60;99.90
9800;DHT22;4939;52.00085300;4.17406100;2023-03-05T10:19:20;7.50;99.90
9800;DHT22;4939;52.00085300;4.17406100;2023-03-05T10:21:25;7.40;99.90
9800;DHT22;4939;52.00085300;4.17406100;2023-03-05T10:24:02;7.40;99.90
9800;DHT22;4939;52.00085300;4.17406100;2023-03-05T10:27:07;7.60;99.90
9800;DHT22;4939;52.00085300;4.17406100;2023-03-05T10:30:03;7.70;99.90
9800;DHT22;4939;52.00085300;4.17406100;2023-03-05T10:35:04;7.60;99.90
9800;DHT22;4939;52.00085300;4.17406100;2023-03-05T10:38:23;7.40;99.90
9800;DHT22;4939;52.00085300;4.17406100;2023-03-05T10:40:56;7.60;99.90
9800;DHT22;4939;52.00085300;4.17406100;2023-03-05T10:43:47;7.60;99.90
9800;DHT22;4939;52.00085300;4.17406100;2023-03-05T10:46:18;7.60;99.90
9800;DHT22;4939;52.00085300;4.17406100;2023-03-05T10:51:33;7.60;99.90
9800;DHT22;4939;52.00085300;4.17406100;2023-03-05T10:56:37;7.20;99.90
9800;DHT22;4939;52.00085300;4.17406100;2023-03-05T10:59:03;7.10;99.90
9800;DHT22;4939;52.00085300;4.17406100;2023-03-05T11:01:29;7.20;99.90
9800;DHT22;4939;52.00085300;4.17406100;2023-03-05T11:03:58;7.20;99.90
9800;DHT22;4939;52.00085300;4.17406100;2023-03-05T11:06:29;7.20;99.90
9800;DHT22;4939;52.00085300;4.17406100;2023-03-05T11:09:01;7.20;99.90
9800;DHT22;4939;52.00085300;4.17406100;2023-03-05T11:11:39;7.30;99.90
9800;DHT22;4939;52.00085300;4.17406100;2023-03-05T11:14:24;7.30;99.90
9800;DHT22;4939;52.00085300;4.17406100;2023-03-05T11:16:56;7.30;99.90
9800;DHT22;4939;52.00085300;4.17406100;2023-03-05T11:19:30;7.30;99.90
9800;DHT22;4939;52.00085300;4.17406100;2023-03-05T11:22:21;7.40;99.90
9800;DHT22;4939;52.00085300;4.17406100;2023-03-05T11:25:10;7.50;99.90
9800;DHT22;4939;52.00085300;4.17406100;2023-03-05T11:27:42;7.60;99.90
9800;DHT22;4939;52.00085300;4.17406100;2023-03-05T11:30:34;7.50;99.90
9800;DHT22;4939;52.00085300;4.17406100;2023-03-05T11:33:16;7.70;99.90
9800;DHT22;4939;52.00085300;4.17406100;2023-03-05T11:35:48;7.80;99.90
9800;DHT22;4939;52.00085300;4.17406100;2023-03-05T11:38:25;7.90;99.90
9800;DHT22;4939;52.00085300;4.17406100;2023-03-05T11:40:54;7.90;99.90
9800;DHT22;4939;52.00085300;4.17406100;2023-03-05T11:43:23;7.80;99.90
9800;DHT22;4939;52.00085300;4.17406100;2023-03-05T11:45:59;7.70;99.90
9800;DHT22;4939;52.00085300;4.17406100;2023-03-05T11:48:29;7.70;99.90
9800;DHT22;4939;52.00085300;4.17406100;2023-03-05T11:51:01;7.70;99.90
9800;DHT22;4939;52.00085300;4.17406100;2023-03-05T11:53:30;7.80;99.90
9800;DHT22;4939;52.00085300;4.17406100;2023-03-05T11:56:10;7.80;99.90
9800;DHT22;4939;52.00085300;4.17406100;2023-03-05T11:59:27;7.70;99.90
9800;DHT22;4939;52.00085300;4.17406100;2023-03-05T12:01:55;7.60;99.90
9800;DHT22;4939;52.00085300;4.17406100;2023-03-05T12:04:23;7.80;99.90
9800;DHT22;4939;52.00085300;4.17406100;2023-03-05T12:06:57;7.80;99.90
9800;DHT22;4939;52.00085300;4.17406100;2023-03-05T12:09:39;7.80;99.90
9800;DHT22;4939;52.00085300;4.17406100;2023-03-05T12:20:52;7.60;99.90
9800;DHT22;4939;52.00085300;4.17406100;2023-03-05T12:23:21;7.80;99.90
9800;DHT22;4939;52.00085300;4.17406100;2023-03-05T12:25:55;7.70;99.90
9800;DHT22;4939;52.00085300;4.17406100;2023-03-05T12:31:43;7.80;99.90
9800;DHT22;4939;52.00085300;4.17406100;2023-03-05T12:33:44;7.80;99.90
9800;DHT22;4939;52.00085300;4.17406100;2023-03-05T12:46:33;7.70;99.90
9800;DHT22;4939;52.00085300;4.17406100;2023-03-05T12:51:49;7.60;99.90
9800;DHT22;4939;52.00085300;4.17406100;2023-03-05T12:56:56;7.70;99.90
9800;DHT22;4939;52.00085300;4.17406100;2023-03-05T12:59:24;7.50;99.90
9800;DHT22;4939;52.00085300;4.17406100;2023-03-05T13:02:02;7.50;99.90
9800;DHT22;4939;52.00085300;4.17406100;2023-03-05T13:04:31;7.50;99.90
9800;DHT22;4939;52.00085300;4.17406100;2023-03-05T13:07:03;7.50;99.90
9800;DHT22;4939;52.00085300;4.17406100;2023-03-05T13:09:31;7.60;99.90
9800;DHT22;4939;52.00085300;4.17406100;2023-03-05T13:12:00;7.50;99.90
9800;DHT22;4939;52.00085300;4.17406100;2023-03-05T13:14:47;7.40;99.90
9800;DHT22;4939;52.00085300;4.17406100;2023-03-05T13:17:49;7.40;99.90
9800;DHT22;4939;52.00085300;4.17406100;2023-03-05T13:20:35;7.20;99.90
9800;DHT22;4939;52.00085300;4.17406100;2023-03-05T13:23:17;7.20;99.90
9800;DHT22;4939;52.00085300;4.17406100;2023-03-05T13:25:44;7.20;99.90
9800;DHT22;4939;52.00085300;4.17406100;2023-03-05T13:28:14;7.20;99.90
9800;DHT22;4939;52.00085300;4.17406100;2023-03-05T13:30:50;7.10;99.90
9800;DHT22;4939;52.00085300;4.17406100;2023-03-05T13:33:21;7.10;99.90
9800;DHT22;4939;52.00085300;4.17406100;2023-03-05T13:35:47;6.90;99.90
9800;DHT22;4939;52.00085300;4.17406100;2023-03-05T13:38:31;6.90;99.90
9800;DHT22;4939;52.00085300;4.17406100;2023-03-05T13:41:15;7.10;99.90
9800;DHT22;4939;52.00085300;4.17406100;2023-03-05T13:43:51;7.10;99.90
9800;DHT22;4939;52.00085300;4.17406100;2023-03-05T13:46:25;7.10;99.90
9800;DHT22;4939;52.00085300;4.17406100;2023-03-05T13:48:51;7.10;99.90
9800;DHT22;4939;52.00085300;4.17406100;2023-03-05T13:51:16;7.20;99.90
9800;DHT22;4939;52.00085300;4.17406100;2023-03-05T13:53:42;7.10;99.90
9800;DHT22;4939;52.00085300;4.17406100;2023-03-05T13:56:17;7.20;99.90
9800;DHT22;4939;52.00085300;4.17406100;2023-03-05T13:58:48;7.10;99.90
9800;DHT22;4939;52.00085300;4.17406100;2023-03-05T14:01:39;7.10;99.90
9800;DHT22;4939;52.00085300;4.17406100;2023-03-05T14:09:41;7.10;99.90
9800;DHT22;4939;52.00085300;4.17406100;2023-03-05T14:15:03;7.00;99.90
9800;DHT22;4939;52.00085300;4.17406100;2023-03-05T14:17:41;7.10;99.90
9800;DHT22;4939;52.00085300;4.17406100;2023-03-05T14:22:45;7.00;99.90
9800;DHT22;4939;52.00085300;4.17406100;2023-03-05T14:28:03;6.90;99.90
9800;DHT22;4939;52.00085300;4.17406100;2023-03-05T14:30:29;6.80;99.90
9800;DHT22;4939;52.00085300;4.17406100;2023-03-05T14:32:57;6.90;99.90
9800;DHT22;4939;52.00085300;4.17406100;2023-03-05T14:35:25;6.90;99.90
9800;DHT22;4939;52.00085300;4.17406100;2023-03-05T14:37:53;6.90;99.90
9800;DHT22;4939;52.00085300;4.17406100;2023-03-05T14:40:22;6.90;99.90
9800;DHT22;4939;52.00085300;4.17406100;2023-03-05T14:47:52;6.40;99.90
9800;DHT22;4939;52.00085300;4.17406100;2023-03-05T14:50:21;6.50;99.90
9800;DHT22;4939;52.00085300;4.17406100;2023-03-05T14:52:49;6.40;99.90
9800;DHT22;4939;52.00085300;4.17406100;2023-03-05T14:55:17;6.20;99.90
9800;DHT22;4939;52.00085300;4.17406100;2023-03-05T14:57:43;8.60;99.90
9800;DHT22;4939;52.00085300;4.17406100;2023-03-05T15:00:21;6.20;99.90
9800;DHT22;4939;52.00085300;4.17406100;2023-03-05T15:02:48;6.10;99.90
9800;DHT22;4939;52.00085300;4.17406100;2023-03-05T15:05:15;6.20;99.90
9800;DHT22;4939;52.00085300;4.17406100;2023-03-05T15:07:42;6.20;99.90
9800;DHT22;4939;52.00085300;4.17406100;2023-03-05T15:10:16;6.10;99.90
9800;DHT22;4939;52.00085300;4.17406100;2023-03-05T15:12:43;6.20;99.90